Time;durP1;ratioP1;P1;durP2;ratioP2;P2;SDS_P1;SDS_P2;PMS_P1;PMS_P2;Temp;Humidity;BMP_temperature;BMP_pressure;BME280_temperature;BME280_humidity;BME280_pressure;Samples;Min_cycle;Max_cycle;Signal;HPM_P1;HPM_P2
2022/04/10 00:00:43;;;;;;;73.40;49.53;;;16.40;54.20;;;;;;4993000;28;97291;-41
2022/04/10 00:03:11;;;;;;;74.78;49.38;;;16.30;54.00;;;;;;4994575;28;96057;-39
2022/04/10 00:05:37;;;;;;;74.25;49.20;;;16.40;54.10;;;;;;4983236;28;96912;-41
2022/04/10 00:08:03;;;;;;;72.88;49.55;;;16.30;54.10;;;;;;4992319;28;95775;-39
2022/04/10 00:10:29;;;;;;;73.70;49.72;;;16.30;54.30;;;;;;4991085;28;97486;-41
2022/04/10 00:12:55;;;;;;;72.95;49.65;;;16.30;54.20;;;;;;4988860;28;95157;-39
2022/04/10 00:15:21;;;;;;;73.13;49.72;;;16.30;54.10;;;;;;4988569;28;96526;-41
2022/04/10 00:17:47;;;;;;;73.60;49.45;;;16.30;54.30;;;;;;4979690;28;96026;-39
2022/04/10 00:20:13;;;;;;;72.28;49.50;;;16.20;54.10;;;;;;4987052;28;94898;-37
2022/04/10 00:22:46;;;;;;;73.90;49.63;;;16.20;54.10;;;;;;4985265;28;95714;-39
2022/04/10 00:25:15;;;;;;;72.32;49.35;;;16.20;54.10;;;;;;4991473;28;94616;-35
2022/04/10 00:27:41;;;;;;;73.72;49.35;;;16.20;54.10;;;;;;4991214;28;94738;-37
2022/04/10 00:30:09;;;;;;;71.85;49.45;;;16.20;54.20;;;;;;4991992;28;96456;-41
2022/04/10 00:32:34;;;;;;;73.05;49.25;;;16.20;54.20;;;;;;4984668;27;95353;-39
2022/04/10 00:35:00;;;;;;;72.32;49.38;;;16.10;54.40;;;;;;4991895;28;94818;-39
2022/04/10 00:37:26;;;;;;;73.25;49.45;;;16.10;54.30;;;;;;4986895;28;94476;-40
2022/04/10 00:39:52;;;;;;;73.10;49.42;;;16.20;54.40;;;;;;4979894;28;94927;-40
2022/04/10 00:42:18;;;;;;;73.13;49.47;;;16.10;54.30;;;;;;4970606;28;95087;-40
2022/04/10 00:44:44;;;;;;;73.22;49.55;;;16.10;54.40;;;;;;4985336;28;96448;-41
2022/04/10 00:47:10;;;;;;;72.95;49.42;;;16.10;54.50;;;;;;4978755;28;95349;-40
2022/04/10 00:49:36;;;;;;;72.50;49.28;;;16.00;54.20;;;;;;4983956;28;95636;-38
2022/04/10 00:52:06;;;;;;;72.93;49.33;;;16.00;54.30;;;;;;4987382;28;95165;-35
2022/04/10 00:54:33;;;;;;;72.43;49.15;;;16.10;54.50;;;;;;4986936;27;96324;-38
2022/04/10 00:57:00;;;;;;;73.10;49.60;;;16.00;54.30;;;;;;4987527;28;95647;-37
2022/04/10 00:59:27;;;;;;;72.63;49.47;;;16.00;54.30;;;;;;4991042;28;97616;-38
2022/04/10 01:01:53;;;;;;;73.05;49.13;;;16.00;54.40;;;;;;4982929;28;95101;-38
2022/04/10 01:04:18;;;;;;;72.70;49.55;;;16.00;54.40;;;;;;4990096;28;95405;-40
2022/04/10 01:06:47;;;;;;;72.28;49.30;;;16.00;54.40;;;;;;4980364;28;96182;-39
2022/04/10 01:09:14;;;;;;;71.72;49.45;;;15.90;54.50;;;;;;4988011;28;95642;-40
2022/04/10 01:11:40;;;;;;;71.90;49.60;;;15.90;54.50;;;;;;4988950;28;93871;-39
2022/04/10 01:14:06;;;;;;;71.70;49.38;;;15.90;54.60;;;;;;4991977;28;95300;-37
2022/04/10 01:16:33;;;;;;;71.35;49.20;;;15.90;54.40;;;;;;4984222;28;96383;-35
2022/04/10 01:19:01;;;;;;;72.57;49.25;;;15.90;54.40;;;;;;4996158;27;96521;-37
2022/04/10 01:21:30;;;;;;;71.82;49.13;;;15.90;54.40;;;;;;4990717;28;95153;-41
2022/04/10 01:23:56;;;;;;;72.22;49.17;;;15.90;54.50;;;;;;4984222;28;96010;-39
2022/04/10 01:26:23;;;;;;;72.20;49.15;;;15.90;54.70;;;;;;4994783;28;101595;-38
2022/04/10 01:29:09;;;;;;;72.00;49.35;;;15.90;54.70;;;;;;4996506;28;94675;-35
2022/04/10 01:31:37;;;;;;;72.35;49.13;;;15.90;54.50;;;;;;4989893;28;95532;-39
2022/04/10 01:34:07;;;;;;;72.40;49.03;;;15.90;54.50;;;;;;4991778;28;95233;-38
2022/04/10 01:36:34;;;;;;;73.63;49.37;;;15.80;54.70;;;;;;4993507;28;95329;-38
2022/04/10 01:39:02;;;;;;;71.72;49.03;;;15.80;54.70;;;;;;4994499;28;94982;-35
2022/04/10 01:41:30;;;;;;;70.45;48.92;;;15.80;54.80;;;;;;4994138;28;95094;-38
2022/04/10 01:43:57;;;;;;;70.70;49.03;;;15.80;54.60;;;;;;4995009;28;98360;-42
2022/04/10 01:46:25;;;;;;;71.00;48.92;;;15.80;54.60;;;;;;4984602;28;95908;-43
2022/04/10 01:48:50;;;;;;;72.93;49.30;;;15.80;54.60;;;;;;4981136;28;95253;-38
2022/04/10 01:51:16;;;;;;;70.40;48.95;;;15.80;54.40;;;;;;4986678;28;96015;-39
2022/04/10 01:53:42;;;;;;;71.00;48.97;;;15.80;54.60;;;;;;4987064;28;100265;-36
2022/04/10 01:56:09;;;;;;;70.53;48.92;;;15.70;54.60;;;;;;4989624;28;99638;-40
2022/04/10 01:58:40;;;;;;;70.45;48.95;;;15.70;54.60;;;;;;4989656;28;94907;-38
2022/04/10 02:01:07;;;;;;;70.70;49.10;;;15.70;54.60;;;;;;4991779;28;95297;-40
2022/04/10 02:03:33;;;;;;;71.35;49.03;;;15.70;54.40;;;;;;4988999;28;94901;-40
2022/04/10 02:06:02;;;;;;;72.47;49.35;;;15.70;54.70;;;;;;4989685;28;95296;-36
2022/04/10 02:08:29;;;;;;;71.78;49.05;;;15.70;54.70;;;;;;4990558;28;96386;-48
2022/04/10 02:10:55;;;;;;;71.32;49.30;;;15.70;54.70;;;;;;4990781;28;95072;-40
2022/04/10 02:13:21;;;;;;;72.30;49.00;;;15.70;54.80;;;;;;4988701;28;96223;-41
2022/04/10 02:15:47;;;;;;;70.43;48.95;;;15.70;54.80;;;;;;4991337;28;96418;-41
2022/04/10 02:18:13;;;;;;;70.28;48.50;;;15.70;54.60;;;;;;4984150;28;95027;-37
2022/04/10 02:20:39;;;;;;;70.07;48.75;;;15.70;54.80;;;;;;4988380;28;96331;-42
2022/04/10 02:23:05;;;;;;;71.68;49.33;;;15.60;54.40;;;;;;4967941;28;96551;-39
2022/04/10 02:25:30;;;;;;;70.38;49.15;;;15.60;54.80;;;;;;4969103;28;94825;-41
2022/04/10 02:27:56;;;;;;;71.20;49.05;;;15.60;54.70;;;;;;4978402;28;94688;-39
2022/04/10 02:30:22;;;;;;;69.40;48.65;;;15.60;54.80;;;;;;4978375;28;95593;-38
2022/04/10 02:32:48;;;;;;;69.70;48.83;;;15.60;54.80;;;;;;4970599;28;95998;-39
2022/04/10 02:35:14;;;;;;;70.40;48.80;;;15.60;54.70;;;;;;4967497;28;95357;-42
2022/04/10 02:37:40;;;;;;;70.72;48.80;;;15.50;54.60;;;;;;4964581;28;95000;-37
2022/04/10 02:40:07;;;;;;;69.72;48.78;;;15.50;54.70;;;;;;4971095;28;94708;-39
2022/04/10 02:42:34;;;;;;;70.28;49.10;;;15.50;54.80;;;;;;4973413;28;95230;-36
2022/04/10 02:45:01;;;;;;;70.13;49.10;;;15.50;54.80;;;;;;4973004;28;95011;-39
2022/04/10 02:47:26;;;;;;;70.03;48.88;;;15.50;54.80;;;;;;4958134;28;95361;-42
2022/04/10 02:49:52;;;;;;;71.03;48.85;;;15.50;54.80;;;;;;4962748;28;94972;-39
2022/04/10 02:52:18;;;;;;;70.50;49.05;;;15.40;54.80;;;;;;4961963;28;95808;-37
2022/04/10 02:54:44;;;;;;;70.15;48.53;;;15.40;54.90;;;;;;4964827;28;94995;-37
2022/04/10 02:57:10;;;;;;;70.70;48.72;;;15.40;54.80;;;;;;4974220;28;96593;-37
2022/04/10 02:59:37;;;;;;;69.57;48.72;;;15.40;54.80;;;;;;4971284;28;95888;-41
2022/04/10 03:02:03;;;;;;;71.15;49.17;;;15.40;54.80;;;;;;4967063;28;96161;-39
2022/04/10 03:04:28;;;;;;;70.30;48.75;;;15.40;54.90;;;;;;4967151;28;95554;-36
2022/04/10 03:06:54;;;;;;;70.65;48.85;;;15.40;54.70;;;;;;4967701;28;95552;-40
2022/04/10 03:09:19;;;;;;;69.80;48.85;;;15.40;54.80;;;;;;4968157;28;95256;-38
2022/04/10 03:11:45;;;;;;;68.50;48.47;;;15.40;54.90;;;;;;4964116;28;94957;-38
2022/04/10 03:14:11;;;;;;;71.10;48.70;;;15.40;55.00;;;;;;4965095;28;97975;-37
2022/04/10 03:16:36;;;;;;;71.35;49.10;;;15.30;54.80;;;;;;4971834;28;95279;-37
2022/04/10 03:19:03;;;;;;;69.53;48.85;;;15.30;54.90;;;;;;4942390;28;96065;-40
2022/04/10 03:21:28;;;;;;;68.53;48.38;;;15.30;54.80;;;;;;4957401;28;96296;-41
2022/04/10 03:23:54;;;;;;;69.57;48.88;;;15.30;54.70;;;;;;4993522;28;95906;-39
2022/04/10 03:26:20;;;;;;;71.22;48.97;;;15.30;55.00;;;;;;4990775;28;95372;-36
2022/04/10 03:28:46;;;;;;;70.30;48.75;;;15.30;54.70;;;;;;4990589;28;95910;-41
2022/04/10 03:31:11;;;;;;;71.75;49.03;;;15.30;54.80;;;;;;4987920;28;95344;-41
2022/04/10 03:33:37;;;;;;;69.53;48.78;;;15.20;54.80;;;;;;4990803;28;94574;-40
2022/04/10 03:36:03;;;;;;;68.93;48.65;;;15.20;54.90;;;;;;4991954;28;95195;-41
2022/04/10 03:38:28;;;;;;;69.50;48.63;;;15.20;55.00;;;;;;4992711;28;94145;-40
2022/04/10 03:40:54;;;;;;;69.03;48.63;;;15.20;54.90;;;;;;4990346;28;95256;-41
2022/04/10 03:43:20;;;;;;;69.35;48.65;;;15.20;55.10;;;;;;4997751;27;95159;-36
2022/04/10 03:45:45;;;;;;;69.25;48.75;;;15.20;55.00;;;;;;4987872;28;95954;-39
2022/04/10 03:48:11;;;;;;;70.63;48.65;;;15.20;55.00;;;;;;4981124;28;95950;-38
2022/04/10 03:50:37;;;;;;;69.30;48.72;;;15.20;54.80;;;;;;4985170;28;95599;-42
2022/04/10 03:53:04;;;;;;;69.07;48.80;;;15.10;54.90;;;;;;4990887;28;95531;-40
2022/04/10 03:55:31;;;;;;;68.43;48.45;;;15.10;54.90;;;;;;4993325;28;94671;-37
2022/04/10 03:57:56;;;;;;;70.28;48.55;;;15.10;54.80;;;;;;4991662;28;95779;-41
2022/04/10 04:00:22;;;;;;;70.90;48.75;;;15.10;54.90;;;;;;4987628;28;97123;-41
2022/04/10 04:02:48;;;;;;;70.28;48.38;;;15.10;54.90;;;;;;4992198;28;94825;-37
2022/04/10 04:05:14;;;;;;;69.57;48.47;;;15.00;54.90;;;;;;4987196;28;95232;-38
2022/04/10 04:07:40;;;;;;;70.07;48.85;;;15.10;55.00;;;;;;4990731;27;95015;-41
2022/04/10 04:10:07;;;;;;;68.45;48.47;;;15.00;54.70;;;;;;4984720;28;96048;-38
2022/04/10 04:12:36;;;;;;;68.57;48.45;;;15.00;55.00;;;;;;4990772;28;95996;-41
2022/04/10 04:15:03;;;;;;;70.22;48.83;;;15.10;55.30;;;;;;5001564;28;94804;-42
2022/04/10 04:17:29;;;;;;;69.82;48.70;;;15.20;55.20;;;;;;4983566;28;95159;-40
2022/04/10 04:19:55;;;;;;;69.28;48.45;;;15.40;55.20;;;;;;4987751;28;95256;-40
2022/04/10 04:22:21;;;;;;;70.13;48.72;;;15.70;54.80;;;;;;4987592;28;95031;-40
2022/04/10 04:24:47;;;;;;;70.35;48.97;;;15.90;54.50;;;;;;4988435;28;97392;-40
2022/04/10 04:27:12;;;;;;;70.15;49.00;;;16.10;54.10;;;;;;4990526;28;94528;-40
2022/04/10 04:29:38;;;;;;;70.57;49.08;;;16.30;53.80;;;;;;4986386;28;95052;-39
2022/04/10 04:32:04;;;;;;;70.20;49.15;;;16.50;53.40;;;;;;4988146;28;95785;-39
2022/04/10 04:34:30;;;;;;;71.75;49.05;;;16.60;53.30;;;;;;4986450;28;96144;-36
2022/04/10 04:36:56;;;;;;;70.82;48.92;;;16.70;52.60;;;;;;4990064;28;95174;-41
2022/04/10 04:39:21;;;;;;;70.75;49.22;;;17.00;52.80;;;;;;4996961;28;94818;-37
2022/04/10 04:41:47;;;;;;;71.07;49.30;;;17.10;52.60;;;;;;4990508;28;95116;-37
2022/04/10 04:44:13;;;;;;;71.38;49.35;;;17.20;52.10;;;;;;4989914;28;94976;-37
2022/04/10 04:46:39;;;;;;;70.82;49.10;;;17.40;52.00;;;;;;4986130;28;95228;-38
2022/04/10 04:49:04;;;;;;;71.75;49.33;;;17.50;51.60;;;;;;4977926;28;95787;-39
2022/04/10 04:51:34;;;;;;;72.88;49.65;;;17.60;51.50;;;;;;4982680;28;95415;-40
2022/04/10 04:54:01;;;;;;;72.38;49.63;;;17.80;51.30;;;;;;4991613;28;96596;-36
2022/04/10 04:56:27;;;;;;;72.28;49.55;;;17.90;51.10;;;;;;4984668;28;95295;-40
2022/04/10 04:58:52;;;;;;;72.97;49.83;;;18.00;51.00;;;;;;4991815;28;97455;-40
2022/04/10 05:01:18;;;;;;;72.32;49.47;;;18.10;50.80;;;;;;4989944;28;95925;-38
2022/04/10 05:03:44;;;;;;;72.82;49.67;;;18.10;50.60;;;;;;4989395;28;95770;-39
2022/04/10 05:06:09;;;;;;;72.50;49.63;;;18.30;50.60;;;;;;4993779;28;95006;-40
2022/04/10 05:08:35;;;;;;;72.85;49.83;;;18.30;50.50;;;;;;4994873;28;96029;-39
2022/04/10 05:11:01;;;;;;;72.63;49.80;;;18.40;50.30;;;;;;4997361;28;95252;-41
2022/04/10 05:13:27;;;;;;;72.57;49.55;;;18.40;50.20;;;;;;4994532;28;95482;-39
2022/04/10 05:15:53;;;;;;;72.55;49.88;;;18.40;50.30;;;;;;4990763;28;95553;-41
2022/04/10 05:18:19;;;;;;;72.03;49.42;;;18.40;49.70;;;;;;4986993;28;95256;-37
2022/04/10 05:20:48;;;;;;;72.70;49.72;;;18.40;50.00;;;;;;4987498;28;95545;-36
2022/04/10 05:23:17;;;;;;;71.95;49.75;;;18.30;50.00;;;;;;4987241;28;96345;-37
2022/04/10 05:25:43;;;;;;;72.05;49.83;;;18.30;50.00;;;;;;4992921;28;95086;-37
2022/04/10 05:28:09;;;;;;;71.75;49.38;;;18.30;50.20;;;;;;4993608;27;95739;-42
2022/04/10 05:30:35;;;;;;;72.43;49.55;;;18.20;50.10;;;;;;4993593;28;95283;-40
2022/04/10 05:33:00;;;;;;;71.45;49.72;;;18.10;50.20;;;;;;4992308;28;95202;-38
2022/04/10 05:35:26;;;;;;;72.25;49.65;;;18.20;50.30;;;;;;4995977;28;95039;-37
2022/04/10 05:37:52;;;;;;;72.78;50.05;;;18.10;50.00;;;;;;4983585;28;95274;-40
2022/04/10 05:40:18;;;;;;;72.00;49.70;;;18.20;50.10;;;;;;4991009;28;94354;-42
2022/04/10 05:42:44;;;;;;;72.53;49.75;;;18.20;50.20;;;;;;4992336;28;94948;-39
2022/04/10 05:45:10;;;;;;;71.70;49.63;;;18.00;50.20;;;;;;5000797;28;94699;-41
2022/04/10 05:47:38;;;;;;;73.80;49.90;;;18.10;50.40;;;;;;4984399;28;100439;-38
2022/04/10 05:50:04;;;;;;;72.63;49.33;;;18.00;50.40;;;;;;4983330;28;94900;-39
2022/04/10 05:52:30;;;;;;;71.78;49.45;;;18.00;50.40;;;;;;4986495;28;95062;-36
2022/04/10 05:54:59;;;;;;;72.25;49.63;;;18.00;50.70;;;;;;4994610;28;95155;-38
2022/04/10 05:57:25;;;;;;;71.45;49.65;;;17.90;50.50;;;;;;4996139;28;95827;-41
2022/04/10 05:59:50;;;;;;;73.22;49.45;;;18.00;50.80;;;;;;4998021;28;95202;-39
2022/04/10 06:02:16;;;;;;;72.63;49.65;;;18.00;50.40;;;;;;4987774;28;96762;-37
2022/04/10 06:04:42;;;;;;;74.82;50.10;;;17.90;50.40;;;;;;4993765;28;96014;-41
2022/04/10 06:07:07;;;;;;;71.53;49.63;;;18.00;50.80;;;;;;4989131;28;95783;-37
2022/04/10 06:09:33;;;;;;;71.72;49.75;;;17.90;50.50;;;;;;4987678;28;95072;-39
2022/04/10 06:11:59;;;;;;;73.82;49.70;;;17.90;50.70;;;;;;4985266;28;95930;-40
2022/04/10 06:14:24;;;;;;;71.72;49.55;;;17.90;50.50;;;;;;4991631;28;95010;-36
2022/04/10 06:16:50;;;;;;;71.53;49.88;;;17.90;50.60;;;;;;4992464;28;96940;-42
2022/04/10 06:19:18;;;;;;;72.35;49.95;;;17.80;50.40;;;;;;4979079;28;98177;-39
2022/04/10 06:21:44;;;;;;;72.88;49.85;;;17.80;50.60;;;;;;4989752;28;95146;-39
2022/04/10 06:24:10;;;;;;;71.90;49.28;;;17.70;50.70;;;;;;4988515;27;95268;-40
2022/04/10 06:26:36;;;;;;;72.57;50.08;;;17.70;50.80;;;;;;4993354;28;95566;-37
2022/04/10 06:29:01;;;;;;;72.05;49.40;;;17.70;50.70;;;;;;4995066;28;95644;-38
2022/04/10 06:31:27;;;;;;;73.05;49.63;;;17.60;50.70;;;;;;4990491;28;94927;-39
2022/04/10 06:33:54;;;;;;;73.00;49.65;;;17.70;50.90;;;;;;4993204;28;95242;-39
2022/04/10 06:36:20;;;;;;;72.38;49.63;;;17.70;50.90;;;;;;4992156;28;102264;-39
2022/04/10 06:38:46;;;;;;;72.90;49.42;;;17.60;50.70;;;;;;4991228;27;95175;-40
2022/04/10 06:41:11;;;;;;;71.68;49.30;;;17.60;50.70;;;;;;4992694;28;95140;-41
2022/04/10 06:43:37;;;;;;;71.30;49.72;;;17.60;50.90;;;;;;4993984;28;95365;-36
2022/04/10 06:46:04;;;;;;;71.85;49.55;;;17.60;50.70;;;;;;4988422;28;96044;-39
2022/04/10 06:48:31;;;;;;;72.22;49.83;;;17.60;50.80;;;;;;4986410;27;95259;-41
2022/04/10 06:50:56;;;;;;;72.70;49.65;;;17.60;50.90;;;;;;4988900;28;94951;-37
2022/04/10 06:53:22;;;;;;;71.78;49.83;;;17.70;50.80;;;;;;4982515;28;94182;-39
2022/04/10 06:55:48;;;;;;;72.40;49.50;;;17.70;50.60;;;;;;4990098;28;96432;-38
2022/04/10 06:58:16;;;;;;;73.00;49.80;;;17.70;50.60;;;;;;4992170;28;95187;-42
2022/04/10 07:00:42;;;;;;;71.03;49.22;;;17.70;50.60;;;;;;4988973;28;96215;-39
2022/04/10 07:03:08;;;;;;;71.78;49.53;;;17.70;50.50;;;;;;4988391;28;94818;-39
2022/04/10 07:05:35;;;;;;;72.28;49.75;;;17.80;50.70;;;;;;4997677;28;95683;-41
2022/04/10 07:08:01;;;;;;;72.10;49.63;;;17.80;50.40;;;;;;4989155;28;95567;-39
2022/04/10 07:10:28;;;;;;;73.25;49.95;;;17.80;50.30;;;;;;4996772;28;94885;-39
2022/04/10 07:12:53;;;;;;;73.90;49.72;;;17.70;50.30;;;;;;4988976;28;97930;-41
2022/04/10 07:15:19;;;;;;;73.40;49.80;;;17.70;50.70;;;;;;4992034;28;95341;-42
2022/04/10 07:17:45;;;;;;;72.38;49.92;;;17.80;50.50;;;;;;4989569;28;96042;-38
2022/04/10 07:20:11;;;;;;;72.93;49.72;;;17.70;50.30;;;;;;4976268;28;94803;-41
2022/04/10 07:25:21;;;;;;;73.40;49.78;;;17.80;50.50;;;;;;4992095;28;96708;-39
2022/04/10 07:27:47;;;;;;;73.75;49.95;;;17.80;50.50;;;;;;4988106;27;95113;-41
2022/04/10 07:30:12;;;;;;;72.45;49.95;;;17.80;50.40;;;;;;4992769;28;95221;-36
2022/04/10 07:32:39;;;;;;;72.90;49.85;;;17.70;50.50;;;;;;4996772;28;95059;-39
2022/04/10 07:35:05;;;;;;;72.10;49.97;;;17.80;50.60;;;;;;4991881;28;95158;-39
2022/04/10 07:37:31;;;;;;;72.93;49.97;;;17.80;50.50;;;;;;4988234;28;95542;-39
2022/04/10 07:39:57;;;;;;;73.35;49.72;;;17.90;50.60;;;;;;4985808;28;100403;-38
2022/04/10 07:42:23;;;;;;;73.05;50.05;;;18.00;50.50;;;;;;4989518;28;101602;-37
2022/04/10 07:44:49;;;;;;;74.88;50.05;;;18.00;50.20;;;;;;4994211;28;95132;-41
2022/04/10 07:47:27;;;;;;;74.72;49.85;;;18.20;50.40;;;;;;4990019;28;95168;-40
2022/04/10 07:49:55;;;;;;;74.07;50.10;;;18.30;50.00;;;;;;4983962;28;97124;-35
2022/04/10 07:52:22;;;;;;;74.90;50.13;;;18.50;49.80;;;;;;4986505;28;95237;-40
2022/04/10 07:54:48;;;;;;;74.40;50.05;;;18.50;49.60;;;;;;4985808;28;96363;-38
2022/04/10 07:57:14;;;;;;;76.32;50.20;;;18.60;49.40;;;;;;4982840;28;95173;-36
2022/04/10 07:59:40;;;;;;;76.82;50.58;;;18.60;49.30;;;;;;4987195;28;95976;-38
2022/04/10 08:02:06;;;;;;;76.75;50.38;;;18.60;49.20;;;;;;4990688;28;96229;-41
2022/04/10 08:04:32;;;;;;;75.78;50.20;;;18.70;49.10;;;;;;4991123;28;96277;-40
2022/04/10 08:06:57;;;;;;;75.47;50.42;;;18.80;49.20;;;;;;4990335;28;95270;-41
2022/04/10 08:09:23;;;;;;;75.30;50.42;;;18.70;49.00;;;;;;4987732;28;95868;-42
2022/04/10 08:11:50;;;;;;;76.95;50.55;;;18.80;49.10;;;;;;4992863;28;95332;-42
2022/04/10 08:14:16;;;;;;;77.35;50.72;;;18.80;49.10;;;;;;4989465;28;98120;-37
2022/04/10 08:16:42;;;;;;;76.68;50.33;;;18.80;49.00;;;;;;4980980;28;95761;-40
2022/04/10 08:19:07;;;;;;;79.60;50.40;;;18.80;49.10;;;;;;4987135;28;95982;-40
2022/04/10 08:21:33;;;;;;;74.47;50.35;;;18.80;49.00;;;;;;4984594;28;97717;-39
2022/04/10 08:23:59;;;;;;;78.78;50.50;;;18.80;49.00;;;;;;4986237;28;95734;-39
2022/04/10 08:26:25;;;;;;;81.38;50.50;;;18.80;49.10;;;;;;4993584;28;95936;-40
2022/04/10 08:28:50;;;;;;;80.60;50.28;;;18.80;49.00;;;;;;4990952;28;95746;-39
2022/04/10 08:31:16;;;;;;;76.22;50.17;;;18.80;49.10;;;;;;4989124;28;95646;-41
2022/04/10 08:33:42;;;;;;;78.03;50.63;;;18.70;49.30;;;;;;4990819;28;95131;-41
2022/04/10 08:36:08;;;;;;;76.25;50.65;;;18.80;49.60;;;;;;4992593;28;95201;-37
2022/04/10 08:38:34;;;;;;;75.60;50.45;;;18.80;49.60;;;;;;4996541;28;96598;-40
2022/04/10 08:41:01;;;;;;;74.63;50.35;;;18.80;49.40;;;;;;4991248;28;99804;-37
2022/04/10 08:43:28;;;;;;;78.60;50.67;;;18.90;49.50;;;;;;4989060;28;97426;-42
2022/04/10 08:45:58;;;;;;;74.75;50.40;;;18.90;49.40;;;;;;4984449;28;102010;-42
2022/04/10 08:48:26;;;;;;;75.88;50.53;;;18.90;49.40;;;;;;4988527;28;95577;-38
2022/04/10 08:50:56;;;;;;;77.07;50.45;;;18.90;49.50;;;;;;4981467;28;94742;-40
2022/04/10 08:53:23;;;;;;;77.28;50.63;;;18.90;49.70;;;;;;4986486;28;95449;-41
2022/04/10 08:55:49;;;;;;;78.38;50.63;;;18.90;49.80;;;;;;4986087;28;94992;-39
2022/04/10 08:58:15;;;;;;;75.72;50.88;;;18.90;49.80;;;;;;4991424;28;96395;-39
2022/04/10 09:00:44;;;;;;;76.88;50.72;;;18.90;49.70;;;;;;4989394;28;96908;-41
2022/04/10 09:03:10;;;;;;;77.25;50.58;;;18.80;50.00;;;;;;4987924;28;97184;-37
2022/04/10 09:05:37;;;;;;;79.85;50.88;;;18.80;50.20;;;;;;4994914;28;97176;-41
2022/04/10 09:08:14;;;;;;;78.75;50.92;;;18.90;50.40;;;;;;4987052;28;100288;-36
2022/04/10 09:10:52;;;;;;;76.45;50.42;;;18.90;50.40;;;;;;4991543;28;96202;-38
2022/04/10 09:13:25;;;;;;;78.15;50.55;;;18.90;50.40;;;;;;4992466;28;95353;-40
2022/04/10 09:15:52;;;;;;;78.78;50.92;;;19.00;50.20;;;;;;4994649;28;94700;-38
2022/04/10 09:18:18;;;;;;;76.78;50.75;;;19.00;50.10;;;;;;4994458;28;97182;-40
2022/04/10 09:20:43;;;;;;;79.30;51.05;;;19.10;50.40;;;;;;4980642;28;94566;-36
2022/04/10 09:23:09;;;;;;;77.30;51.13;;;19.20;50.50;;;;;;4993553;28;95160;-40
2022/04/10 09:25:44;;;;;;;79.70;51.35;;;19.20;50.40;;;;;;4984148;28;99271;-41
2022/04/10 09:28:11;;;;;;;79.47;51.38;;;19.20;50.70;;;;;;4991869;28;101607;-39
2022/04/10 09:30:37;;;;;;;75.93;50.72;;;19.30;50.90;;;;;;4986842;27;95131;-38
2022/04/10 09:33:03;;;;;;;76.80;50.85;;;19.30;51.10;;;;;;4990280;28;100791;-41
2022/04/10 09:35:42;;;;;;;78.07;51.10;;;19.30;51.10;;;;;;4987343;28;97269;-37
2022/04/10 09:38:08;;;;;;;81.25;51.33;;;19.40;51.60;;;;;;4989292;28;95006;-37
2022/04/10 09:40:35;;;;;;;80.05;51.13;;;19.40;52.30;;;;;;4985297;28;95366;-43
2022/04/10 09:43:04;;;;;;;76.78;51.05;;;19.40;52.80;;;;;;4986056;28;95572;-39
2022/04/10 09:45:41;;;;;;;83.18;51.05;;;19.40;52.70;;;;;;4985752;28;94634;-38
2022/04/10 09:48:17;;;;;;;78.45;50.88;;;19.50;52.70;;;;;;4988099;28;95070;-42
2022/04/10 09:50:42;;;;;;;80.28;51.20;;;19.50;52.80;;;;;;4984880;28;95622;-41
2022/04/10 09:53:10;;;;;;;87.55;51.25;;;19.50;52.90;;;;;;4993861;28;96235;-38
2022/04/10 09:55:41;;;;;;;83.65;51.10;;;19.50;53.20;;;;;;4988401;28;97156;-39
2022/04/10 09:58:13;;;;;;;80.35;51.00;;;19.60;52.80;;;;;;4990972;28;95327;-41
2022/04/10 10:00:44;;;;;;;76.55;50.95;;;19.60;52.50;;;;;;4986078;28;95294;-41
2022/04/10 10:03:10;;;;;;;80.65;51.25;;;19.50;52.10;;;;;;4989467;28;95154;-40
2022/04/10 10:05:37;;;;;;;76.78;51.05;;;19.50;51.90;;;;;;4989639;28;95712;-41
2022/04/10 10:08:05;;;;;;;78.28;50.95;;;19.50;51.70;;;;;;4988203;28;95222;-37
2022/04/10 10:10:33;;;;;;;79.78;50.95;;;19.50;51.70;;;;;;4989958;28;95981;-38
2022/04/10 10:13:06;;;;;;;80.53;51.38;;;19.50;52.20;;;;;;4995704;28;96592;-37
2022/04/10 10:15:34;;;;;;;79.22;51.17;;;19.60;52.50;;;;;;4990540;28;95064;-39
2022/04/10 10:18:02;;;;;;;84.55;51.75;;;19.50;52.30;;;;;;4985498;28;96299;-40
2022/04/10 10:20:28;;;;;;;81.95;51.03;;;19.60;52.30;;;;;;4981774;27;99606;-39
2022/04/10 10:22:55;;;;;;;81.97;51.50;;;19.50;51.70;;;;;;4994709;28;95691;-35
2022/04/10 10:25:27;;;;;;;81.22;51.47;;;19.50;51.90;;;;;;4993284;28;95033;-40
2022/04/10 10:28:18;;;;;;;80.05;51.10;;;19.50;52.40;;;;;;4991327;28;94771;-43
2022/04/10 10:30:54;;;;;;;79.78;51.15;;;19.50;51.90;;;;;;4987557;28;95548;-36
2022/04/10 10:33:22;;;;;;;80.82;51.03;;;19.50;52.10;;;;;;4990654;28;95426;-39
2022/04/10 10:35:56;;;;;;;81.10;51.53;;;19.50;52.00;;;;;;4986164;28;95058;-40
2022/04/10 10:38:30;;;;;;;79.13;51.55;;;19.50;52.40;;;;;;4991857;28;95110;-39
2022/04/10 10:41:28;;;;;;;80.75;51.65;;;19.40;51.80;;;;;;4986980;28;97734;-40
2022/04/10 10:43:55;;;;;;;80.97;51.75;;;19.40;52.00;;;;;;4964955;28;96055;-39
2022/04/10 10:46:23;;;;;;;79.95;51.42;;;19.40;51.80;;;;;;4988381;27;95180;-40
2022/04/10 10:49:10;;;;;;;79.50;51.50;;;19.40;51.70;;;;;;4989171;28;95395;-41
2022/04/10 10:51:36;;;;;;;83.47;51.28;;;19.40;51.80;;;;;;4980115;28;100500;-39
2022/04/10 10:54:04;;;;;;;80.93;51.92;;;19.40;51.20;;;;;;4992572;28;95043;-43
2022/04/10 10:56:31;;;;;;;81.07;51.83;;;19.40;51.00;;;;;;4989007;27;95846;-41
2022/04/10 10:59:25;;;;;;;80.25;51.53;;;19.40;51.80;;;;;;4988330;28;95381;-41
2022/04/10 11:02:07;;;;;;;82.53;51.45;;;19.40;51.50;;;;;;4977863;28;94380;-39
2022/04/10 11:04:45;;;;;;;81.35;51.35;;;19.40;52.30;;;;;;4983239;28;95523;-41
2022/04/10 11:07:20;;;;;;;87.07;52.05;;;19.40;51.40;;;;;;4988675;28;98613;-41
2022/04/10 11:10:03;;;;;;;86.40;52.03;;;19.30;52.20;;;;;;4985605;28;97468;-40
2022/04/10 11:12:37;;;;;;;78.43;51.50;;;19.30;52.20;;;;;;4986231;28;97706;-41
2022/04/10 11:15:11;;;;;;;81.45;51.70;;;19.30;53.00;;;;;;4987393;27;95959;-39
2022/04/10 11:17:37;;;;;;;87.00;52.28;;;19.40;53.20;;;;;;4988196;28;96769;-41
2022/04/10 11:20:05;;;;;;;87.03;52.80;;;19.40;54.30;;;;;;4983280;28;95581;-43
2022/04/10 11:22:36;;;;;;;84.25;52.63;;;19.40;56.20;;;;;;4978535;28;95137;-39
2022/04/10 11:25:09;;;;;;;86.80;52.65;;;19.40;52.80;;;;;;4983843;28;95081;-37
2022/04/10 11:27:42;;;;;;;95.93;58.63;;;19.30;51.30;;;;;;4982799;28;98507;-41
2022/04/10 11:30:09;;;;;;;181.02;89.20;;;19.30;50.10;;;;;;4991333;28;96666;-43
2022/04/10 11:32:44;;;;;;;212.25;107.70;;;19.30;52.10;;;;;;4987557;28;96209;-38
2022/04/10 11:35:15;;;;;;;187.35;103.78;;;19.40;53.60;;;;;;4997117;28;96455;-38
2022/04/10 11:37:44;;;;;;;137.00;81.13;;;19.40;51.80;;;;;;4979992;28;97757;-38
2022/04/10 11:40:11;;;;;;;131.23;73.72;;;19.30;50.00;;;;;;4988089;28;100122;-39
2022/04/10 11:42:37;;;;;;;110.32;65.25;;;19.30;49.10;;;;;;4989078;28;94617;-41
2022/04/10 11:45:03;;;;;;;107.07;63.00;;;19.30;48.40;;;;;;4999580;28;95651;-40
2022/04/10 11:47:29;;;;;;;101.38;60.33;;;19.30;47.60;;;;;;4985628;28;95657;-40
2022/04/10 11:49:56;;;;;;;97.30;58.88;;;19.40;46.80;;;;;;4985862;28;94986;-40
2022/04/10 11:52:23;;;;;;;96.30;57.47;;;19.40;46.60;;;;;;4982568;27;95867;-40
2022/04/10 11:54:50;;;;;;;90.45;56.05;;;19.40;46.70;;;;;;4993136;28;95304;-40
2022/04/10 11:57:16;;;;;;;94.07;55.88;;;19.40;46.20;;;;;;4980769;28;95174;-40
2022/04/10 11:59:43;;;;;;;93.95;56.08;;;19.50;46.60;;;;;;4992239;28;96930;-39
2022/04/10 12:02:13;;;;;;;92.75;55.55;;;19.50;47.70;;;;;;4984440;28;96089;-42
2022/04/10 12:04:40;;;;;;;96.25;55.92;;;19.60;47.90;;;;;;4986157;28;94965;-42
2022/04/10 12:07:18;;;;;;;88.90;55.17;;;19.70;48.00;;;;;;4989959;28;101159;-40
2022/04/10 12:09:45;;;;;;;91.13;55.22;;;19.70;48.70;;;;;;4987067;28;94995;-38
2022/04/10 12:12:12;;;;;;;97.38;55.50;;;19.80;48.80;;;;;;4992246;28;95125;-40
2022/04/10 12:14:38;;;;;;;92.88;55.50;;;19.80;49.10;;;;;;4986306;28;100372;-39
2022/04/10 12:17:09;;;;;;;92.70;55.28;;;19.90;49.50;;;;;;4987432;28;97446;-42
2022/04/10 12:19:35;;;;;;;;;;;19.90;49.70;;;;;;4984595;28;101138;-43
2022/04/10 12:22:07;;;;;;;91.20;54.50;;;20.00;49.80;;;;;;4980418;28;98881;-39
2022/04/10 12:24:34;;;;;;;92.72;54.97;;;20.00;49.60;;;;;;4991691;28;96925;-40
2022/04/10 12:27:02;;;;;;;91.45;54.33;;;20.10;49.70;;;;;;4985265;28;95628;-38
2022/04/10 12:29:29;;;;;;;89.75;54.70;;;20.10;49.90;;;;;;4989458;28;94736;-40